^^
Saratoga-Weather Station Historical Data
Daily Summary for October 31, 2020 Units:  Both    English   Metric
Daily Weekly Monthly Yearly Custom
  High: Low: Average:
Temperature: 62.4 °F /  16.9 °C 47.7 °F /  8.7 °C 54.7 °F /  12.6 °C
Dew Point: 54 °F /  12.2 °C 46 °F /  7.8 °C 50.2 °F /  10.1 °C
Humidity: 95% 67% 85%
Wind Speed: 10.1mph /  16.3km/h - 0.9mph /  1.4km/h
Wind Gust: 13mph /  20.9km/h - -
Wind- - SE
Pressure: 30.3 in /  1024.7 hPa 30 in /  1016.6 hPa -
Precipitation: 0 in /  0.0 mm    
Historical Graphs
 
 
Tabular Data for October 31, 2020
Time Temperature Dew Point Pressure Wind Wind Speed Wind Gust Humidity Rainfall Rate (Hourly) solar
00:01 54 °F /  12.2 °C 50.5 °F /  10.3 °C 30.3in /  1024.7hPa Calm   1mph /  1.6km/h 88% 0in /  0.0mm 0 W/m2
00:06 54 °F /  12.2 °C 50.7 °F /  10.4 °C 30.3in /  1024.7hPa Calm   1mph /  1.6km/h 89% 0in /  0.0mm 0 W/m2
00:11 53.8 °F /  12.1 °C 50.5 °F /  10.3 °C 30.3in /  1024.7hPa Calm     89% 0in /  0.0mm 0 W/m2
00:16 53.6 °F /  12 °C 50.2 °F /  10.1 °C 30.3in /  1024.7hPa Calm   1mph /  1.6km/h 88% 0in /  0.0mm 0 W/m2
00:21 53.6 °F /  12 °C 50.2 °F /  10.1 °C 30.3in /  1024.7hPa Calm     88% 0in /  0.0mm 0 W/m2
00:26 53.6 °F /  12 °C 50.2 °F /  10.1 °C 30.3in /  1024.7hPa Calm   3mph /  4.8km/h 88% 0in /  0.0mm 0 W/m2
00:31 53.6 °F /  12 °C 50.2 °F /  10.1 °C 30.3in /  1024.7hPa Calm   1mph /  1.6km/h 88% 0in /  0.0mm 0 W/m2
00:37 53.4 °F /  11.9 °C 50.2 °F /  10.1 °C 30.3in /  1024.7hPa Calm   2mph /  3.2km/h 89% 0in /  0.0mm 0 W/m2
00:42 53.4 °F /  11.9 °C 50 °F /  10 °C 30.3in /  1024.7hPa SSE 0.9mph /  1.4km/h 3mph /  4.8km/h 88% 0in /  0.0mm 0 W/m2
00:47 53.6 °F /  12 °C 50.2 °F /  10.1 °C 30.3in /  1024.4hPa Calm     88% 0in /  0.0mm 0 W/m2
00:52 53.6 °F /  12 °C 50.2 °F /  10.1 °C 30.3in /  1024.4hPa Calm   3mph /  4.8km/h 88% 0in /  0.0mm 0 W/m2
00:57 53.6 °F /  12 °C 50.4 °F /  10.2 °C 30.3in /  1024.4hPa Calm     89% 0in /  0.0mm 0 W/m2
01:02 53.4 °F /  11.9 °C 50.2 °F /  10.1 °C 30.3in /  1024.4hPa Calm   1mph /  1.6km/h 89% 0in /  0.0mm 0 W/m2
01:07 53.2 °F /  11.8 °C 49.8 °F /  9.9 °C 30.3in /  1024.7hPa WSW 3mph /  4.8km/h 3mph /  4.8km/h 88% 0in /  0.0mm 0 W/m2
01:12 53.4 °F /  11.9 °C 50 °F /  10 °C 30.3in /  1024.4hPa Calm   1mph /  1.6km/h 88% 0in /  0.0mm 0 W/m2
01:17 53.4 °F /  11.9 °C 49.6 °F /  9.8 °C 30.3in /  1024.4hPa SSE 2mph /  3.2km/h 3mph /  4.8km/h 87% 0in /  0.0mm 0 W/m2
01:22 53.8 °F /  12.1 °C 50 °F /  10 °C 30.3in /  1024.4hPa Calm   1mph /  1.6km/h 87% 0in /  0.0mm 0 W/m2
01:27 53.8 °F /  12.1 °C 50.4 °F /  10.2 °C 30.3in /  1024.4hPa Calm     88% 0in /  0.0mm 0 W/m2
01:32 53.8 °F /  12.1 °C 50.4 °F /  10.2 °C 30.2in /  1024.0hPa Calm     88% 0in /  0.0mm 0 W/m2
01:37 53.4 °F /  11.9 °C 50 °F /  10 °C 30.3in /  1024.4hPa Calm   2mph /  3.2km/h 88% 0in /  0.0mm 0 W/m2
01:42 53.4 °F /  11.9 °C 50.2 °F /  10.1 °C 30.2in /  1024.0hPa Calm     89% 0in /  0.0mm 0 W/m2
01:47 53.4 °F /  11.9 °C 50.2 °F /  10.1 °C 30.2in /  1024.0hPa Calm   2mph /  3.2km/h 89% 0in /  0.0mm 0 W/m2
01:52 53.2 °F /  11.8 °C 50.4 °F /  10.2 °C 30.2in /  1024.0hPa Calm     90% 0in /  0.0mm 0 W/m2
01:57 53.1 °F /  11.7 °C 50.2 °F /  10.1 °C 30.2in /  1024.0hPa Calm     90% 0in /  0.0mm 0 W/m2
02:02 53.1 °F /  11.7 °C 50.2 °F /  10.1 °C 30.2in /  1024.0hPa Calm     90% 0in /  0.0mm 0 W/m2
02:07 53.1 °F /  11.7 °C 50.2 °F /  10.1 °C 30.2in /  1024.0hPa Calm     90% 0in /  0.0mm 0 W/m2
02:12 53.1 °F /  11.7 °C 50.2 °F /  10.1 °C 30.2in /  1024.0hPa Calm     90% 0in /  0.0mm 0 W/m2
02:17 52.9 °F /  11.6 °C 50 °F /  10 °C 30.2in /  1024.0hPa Calm     90% 0in /  0.0mm 0 W/m2
02:22 52.9 °F /  11.6 °C 50 °F /  10 °C 30.2in /  1024.0hPa Calm     90% 0in /  0.0mm 0 W/m2
02:27 52.9 °F /  11.6 °C 50 °F /  10 °C 30.2in /  1024.0hPa Calm   1mph /  1.6km/h 90% 0in /  0.0mm 0 W/m2
02:32 52.9 °F /  11.6 °C 50 °F /  10 °C 30.2in /  1024.0hPa Calm     90% 0in /  0.0mm 0 W/m2
02:37 52.7 °F /  11.5 °C 49.8 °F /  9.9 °C 30.2in /  1024.0hPa Calm   1mph /  1.6km/h 90% 0in /  0.0mm 0 W/m2
02:42 52.5 °F /  11.4 °C 49.6 °F /  9.8 °C 30.2in /  1024.0hPa Calm     90% 0in /  0.0mm 0 W/m2
02:47 52.5 °F /  11.4 °C 50 °F /  10 °C 30.2in /  1024.0hPa Calm   1mph /  1.6km/h 91% 0in /  0.0mm 0 W/m2
02:52 52.5 °F /  11.4 °C 50 °F /  10 °C 30.2in /  1024.0hPa Calm     91% 0in /  0.0mm 0 W/m2
02:57 52.3 °F /  11.3 °C 49.8 °F /  9.9 °C 30.2in /  1024.0hPa Calm   1mph /  1.6km/h 91% 0in /  0.0mm 0 W/m2
03:02 52.3 °F /  11.3 °C 49.8 °F /  9.9 °C 30.2in /  1024.0hPa Calm     91% 0in /  0.0mm 0 W/m2
03:07 52.3 °F /  11.3 °C 49.8 °F /  9.9 °C 30.2in /  1024.0hPa Calm     91% 0in /  0.0mm 0 W/m2
03:12 52.3 °F /  11.3 °C 50 °F /  10 °C 30.2in /  1023.7hPa West 0.9mph /  1.4km/h 1mph /  1.6km/h 92% 0in /  0.0mm 0 W/m2
03:17 52.2 °F /  11.2 °C 49.8 °F /  9.9 °C 30.2in /  1023.7hPa West 0.9mph /  1.4km/h 1mph /  1.6km/h 92% 0in /  0.0mm 0 W/m2
03:22 52.2 °F /  11.2 °C 49.8 °F /  9.9 °C 30.2in /  1023.7hPa Calm     92% 0in /  0.0mm 0 W/m2
03:27 52.2 °F /  11.2 °C 49.8 °F /  9.9 °C 30.2in /  1023.7hPa Calm   1mph /  1.6km/h 92% 0in /  0.0mm 0 W/m2
03:32 52.2 °F /  11.2 °C 49.8 °F /  9.9 °C 30.2in /  1023.7hPa Calm     92% 0in /  0.0mm 0 W/m2
03:37 52 °F /  11.1 °C 49.6 °F /  9.8 °C 30.2in /  1023.7hPa Calm     92% 0in /  0.0mm 0 W/m2
03:42 52 °F /  11.1 °C 49.6 °F /  9.8 °C 30.2in /  1023.7hPa Calm     92% 0in /  0.0mm 0 W/m2
03:47 52 °F /  11.1 °C 49.6 °F /  9.8 °C 30.2in /  1023.7hPa Calm     92% 0in /  0.0mm 0 W/m2
03:52 52 °F /  11.1 °C 49.6 °F /  9.8 °C 30.2in /  1023.4hPa Calm     92% 0in /  0.0mm 0 W/m2
03:57 52 °F /  11.1 °C 50 °F /  10 °C 30.2in /  1023.4hPa Calm     93% 0in /  0.0mm 0 W/m2
04:02 51.8 °F /  11 °C 49.8 °F /  9.9 °C 30.2in /  1023.4hPa Calm     93% 0in /  0.0mm 0 W/m2
04:07 51.6 °F /  10.9 °C 49.5 °F /  9.7 °C 30.2in /  1023.4hPa Calm     92% 0in /  0.0mm 0 W/m2
04:12 51.6 °F /  10.9 °C 49.5 °F /  9.7 °C 30.2in /  1023.4hPa Calm     92% 0in /  0.0mm 0 W/m2
04:17 51.6 °F /  10.9 °C 49.5 °F /  9.7 °C 30.2in /  1023.7hPa West 0.9mph /  1.4km/h 1mph /  1.6km/h 92% 0in /  0.0mm 0 W/m2
04:22 51.4 °F /  10.8 °C 49.3 °F /  9.6 °C 30.2in /  1023.7hPa Calm     92% 0in /  0.0mm 0 W/m2
04:27 51.4 °F /  10.8 °C 49.3 °F /  9.6 °C 30.2in /  1023.4hPa Calm     92% 0in /  0.0mm 0 W/m2
04:32 51.4 °F /  10.8 °C 49.3 °F /  9.6 °C 30.2in /  1023.7hPa Calm     92% 0in /  0.0mm 0 W/m2
04:37 51.4 °F /  10.8 °C 49.3 °F /  9.6 °C 30.2in /  1023.7hPa Calm     92% 0in /  0.0mm 0 W/m2
04:42 51.4 °F /  10.8 °C 49.3 °F /  9.6 °C 30.2in /  1023.4hPa Calm     92% 0in /  0.0mm 0 W/m2
04:47 51.4 °F /  10.8 °C 49.5 °F /  9.7 °C 30.2in /  1023.4hPa Calm     93% 0in /  0.0mm 0 W/m2
04:52 51.4 °F /  10.8 °C 49.5 °F /  9.7 °C 30.2in /  1023.4hPa Calm     93% 0in /  0.0mm 0 W/m2
04:57 51.4 °F /  10.8 °C 49.5 °F /  9.7 °C 30.2in /  1023.4hPa Calm     93% 0in /  0.0mm 0 W/m2
05:02 51.4 °F /  10.8 °C 49.5 °F /  9.7 °C 30.2in /  1023.4hPa Calm   1mph /  1.6km/h 93% 0in /  0.0mm 0 W/m2
05:07 51.3 °F /  10.7 °C 49.3 °F /  9.6 °C 30.2in /  1023.4hPa Calm     93% 0in /  0.0mm 0 W/m2
05:12 51.3 °F /  10.7 °C 49.3 °F /  9.6 °C 30.2in /  1023.4hPa Calm   1mph /  1.6km/h 93% 0in /  0.0mm 0 W/m2
05:17 51.3 °F /  10.7 °C 49.3 °F /  9.6 °C 30.2in /  1023.4hPa Calm     93% 0in /  0.0mm 0 W/m2
05:22 51.1 °F /  10.6 °C 49.1 °F /  9.5 °C 30.2in /  1023.4hPa Calm     93% 0in /  0.0mm 0 W/m2
05:27 51.1 °F /  10.6 °C 49.1 °F /  9.5 °C 30.2in /  1023.4hPa Calm     93% 0in /  0.0mm 0 W/m2
05:33 50.9 °F /  10.5 °C 48.7 °F /  9.3 °C 30.2in /  1023.4hPa Calm     92% 0in /  0.0mm 0 W/m2
05:38 50.7 °F /  10.4 °C 48.6 °F /  9.2 °C 30.2in /  1023.4hPa Calm     92% 0in /  0.0mm 0 W/m2
05:43 50.5 °F /  10.3 °C 48.6 °F /  9.2 °C 30.2in /  1023.4hPa West 0.9mph /  1.4km/h 1mph /  1.6km/h 93% 0in /  0.0mm 0 W/m2
05:48 50.5 °F /  10.3 °C 48.6 °F /  9.2 °C 30.2in /  1023.4hPa Calm     93% 0in /  0.0mm 0 W/m2
05:53 50.5 °F /  10.3 °C 48.6 °F /  9.2 °C 30.2in /  1023.4hPa Calm     93% 0in /  0.0mm 0 W/m2
05:58 50.5 °F /  10.3 °C 48.6 °F /  9.2 °C 30.2in /  1023.4hPa Calm     93% 0in /  0.0mm 0 W/m2
06:03 50.5 °F /  10.3 °C 48.6 °F /  9.2 °C 30.2in /  1023.4hPa Calm     93% 0in /  0.0mm 0 W/m2
06:08 50.5 °F /  10.3 °C 48.6 °F /  9.2 °C 30.2in /  1023.0hPa Calm     93% 0in /  0.0mm 0 W/m2
06:13 50.5 °F /  10.3 °C 48.6 °F /  9.2 °C 30.2in /  1023.0hPa Calm     93% 0in /  0.0mm 0 W/m2
06:18 50.5 °F /  10.3 °C 48.6 °F /  9.2 °C 30.2in /  1023.0hPa Calm     93% 0in /  0.0mm 0 W/m2
06:23 50.4 °F /  10.2 °C 48.4 °F /  9.1 °C 30.2in /  1023.0hPa Calm     93% 0in /  0.0mm 0 W/m2
06:28 50.4 °F /  10.2 °C 48.4 °F /  9.1 °C 30.2in /  1023.0hPa Calm     93% 0in /  0.0mm 0 W/m2
06:33 50.2 °F /  10.1 °C 48.2 °F /  9 °C 30.2in /  1023.0hPa Calm   1mph /  1.6km/h 93% 0in /  0.0mm 0 W/m2
06:38 50.2 °F /  10.1 °C 48.2 °F /  9 °C 30.2in /  1022.7hPa Calm   1mph /  1.6km/h 93% 0in /  0.0mm 0 W/m2
06:43 50 °F /  10 °C 48 °F /  8.9 °C 30.2in /  1022.7hPa Calm     93% 0in /  0.0mm 0 W/m2
06:48 49.8 °F /  9.9 °C 47.8 °F /  8.8 °C 30.2in /  1022.7hPa Calm     93% 0in /  0.0mm 0 W/m2
06:53 49.8 °F /  9.9 °C 47.8 °F /  8.8 °C 30.2in /  1022.7hPa Calm     93% 0in /  0.0mm 0 W/m2
06:58 49.8 °F /  9.9 °C 47.8 °F /  8.8 °C 30.2in /  1023.0hPa Calm     93% 0in /  0.0mm 0 W/m2
07:03 49.6 °F /  9.8 °C 47.7 °F /  8.7 °C 30.2in /  1023.0hPa Calm     93% 0in /  0.0mm 0 W/m2
07:08 49.6 °F /  9.8 °C 47.7 °F /  8.7 °C 30.2in /  1023.0hPa Calm     93% 0in /  0.0mm 0 W/m2
07:13 49.6 °F /  9.8 °C 47.7 °F /  8.7 °C 30.2in /  1023.0hPa Calm     93% 0in /  0.0mm 0 W/m2
07:18 49.6 °F /  9.8 °C 47.7 °F /  8.7 °C 30.2in /  1022.7hPa Calm     93% 0in /  0.0mm 0 W/m2
07:23 49.6 °F /  9.8 °C 47.7 °F /  8.7 °C 30.2in /  1023.0hPa Calm     93% 0in /  0.0mm 0 W/m2
07:28 49.5 °F /  9.7 °C 47.5 °F /  8.6 °C 30.2in /  1023.0hPa Calm     93% 0in /  0.0mm 0 W/m2
07:33 49.5 °F /  9.7 °C 47.5 °F /  8.6 °C 30.2in /  1022.7hPa Calm     93% 0in /  0.0mm 5 W/m2
07:43 49.3 °F /  9.6 °C 47.3 °F /  8.5 °C 30.2in /  1022.7hPa Calm     93% 0in /  0.0mm 9 W/m2
07:48 49.1 °F /  9.5 °C 47.1 °F /  8.4 °C 30.2in /  1022.7hPa Calm     93% 0in /  0.0mm 11 W/m2
07:53 48.9 °F /  9.4 °C 46.9 °F /  8.3 °C 30.2in /  1022.7hPa Calm     93% 0in /  0.0mm 14 W/m2
07:58 48.7 °F /  9.3 °C 46.8 °F /  8.2 °C 30.2in /  1022.7hPa Calm     93% 0in /  0.0mm 14 W/m2
08:03 48.6 °F /  9.2 °C 46.6 °F /  8.1 °C 30.2in /  1022.7hPa Calm     93% 0in /  0.0mm 19 W/m2
08:08 48.4 °F /  9.1 °C 46.4 °F /  8 °C 30.2in /  1022.7hPa Calm     93% 0in /  0.0mm 21 W/m2
08:13 48 °F /  8.9 °C 46 °F /  7.8 °C 30.2in /  1022.7hPa Calm     93% 0in /  0.0mm 21 W/m2
08:18 48 °F /  8.9 °C 46 °F /  7.8 °C 30.2in /  1022.7hPa Calm     93% 0in /  0.0mm 21 W/m2
08:23 47.8 °F /  8.8 °C 46.2 °F /  7.9 °C 30.2in /  1022.7hPa Calm     94% 0in /  0.0mm 25 W/m2
08:28 47.7 °F /  8.7 °C 46 °F /  7.8 °C 30.2in /  1022.7hPa Calm     94% 0in /  0.0mm 25 W/m2
08:33 47.7 °F /  8.7 °C 46 °F /  7.8 °C 30.2in /  1022.7hPa Calm     94% 0in /  0.0mm 26 W/m2
08:38 47.7 °F /  8.7 °C 46 °F /  7.8 °C 30.2in /  1022.4hPa Calm     94% 0in /  0.0mm 28 W/m2
08:43 47.7 °F /  8.7 °C 46 °F /  7.8 °C 30.2in /  1022.4hPa Calm     94% 0in /  0.0mm 28 W/m2
08:48 47.7 °F /  8.7 °C 46 °F /  7.8 °C 30.2in /  1022.4hPa Calm     94% 0in /  0.0mm 30 W/m2
08:53 47.8 °F /  8.8 °C 46.2 °F /  7.9 °C 30.2in /  1022.4hPa WNW 0.9mph /  1.4km/h 1mph /  1.6km/h 94% 0in /  0.0mm 79 W/m2
08:58 48 °F /  8.9 °C 46.6 °F /  8.1 °C 30.2in /  1022.4hPa Calm   1mph /  1.6km/h 95% 0in /  0.0mm 67 W/m2
09:03 48.6 °F /  9.2 °C 47.1 °F /  8.4 °C 30.2in /  1022.4hPa Calm   2mph /  3.2km/h 95% 0in /  0.0mm 148 W/m2
09:08 48.9 °F /  9.4 °C 47.5 °F /  8.6 °C 30.2in /  1022.4hPa Calm   2mph /  3.2km/h 95% 0in /  0.0mm 109 W/m2
09:13 49.5 °F /  9.7 °C 48 °F /  8.9 °C 30.2in /  1022.4hPa ENE 2mph /  3.2km/h 3mph /  4.8km/h 95% 0in /  0.0mm 74 W/m2
09:18 50.4 °F /  10.2 °C 48.7 °F /  9.3 °C 30.2in /  1022.4hPa NE 0.9mph /  1.4km/h 6mph /  9.7km/h 94% 0in /  0.0mm 127 W/m2
09:23 51.3 °F /  10.7 °C 48.7 °F /  9.3 °C 30.2in /  1022.0hPa East 0.9mph /  1.4km/h 6mph /  9.7km/h 91% 0in /  0.0mm 107 W/m2
09:28 51.6 °F /  10.9 °C 48.7 °F /  9.3 °C 30.2in /  1022.0hPa East 0.9mph /  1.4km/h 7mph /  11.3km/h 90% 0in /  0.0mm 128 W/m2
09:33 52.3 °F /  11.3 °C 48.9 °F /  9.4 °C 30.2in /  1022.0hPa Calm   3mph /  4.8km/h 88% 0in /  0.0mm 79 W/m2
09:38 52.5 °F /  11.4 °C 48.7 °F /  9.3 °C 30.2in /  1022.0hPa ENE 2mph /  3.2km/h 7mph /  11.3km/h 87% 0in /  0.0mm 40 W/m2
09:43 52.9 °F /  11.6 °C 48.7 °F /  9.3 °C 30.2in /  1021.7hPa ENE 0.9mph /  1.4km/h 3mph /  4.8km/h 86% 0in /  0.0mm 39 W/m2
09:48 53.2 °F /  11.8 °C 48.9 °F /  9.4 °C 30.2in /  1021.7hPa NE 2.9mph /  4.7km/h 7mph /  11.3km/h 85% 0in /  0.0mm 72 W/m2
09:53 53.4 °F /  11.9 °C 49.1 °F /  9.5 °C 30.2in /  1021.7hPa NE 0.9mph /  1.4km/h 4mph /  6.4km/h 85% 0in /  0.0mm 60 W/m2
09:58 53.6 °F /  12 °C 48.9 °F /  9.4 °C 30.2in /  1021.7hPa East 0.9mph /  1.4km/h 7mph /  11.3km/h 84% 0in /  0.0mm 53 W/m2
10:04 54 °F /  12.2 °C 48.9 °F /  9.4 °C 30.2in /  1021.7hPa ENE 2mph /  3.2km/h 5mph /  8km/h 83% 0in /  0.0mm 49 W/m2
10:09 54.1 °F /  12.3 °C 48.7 °F /  9.3 °C 30.2in /  1021.3hPa East 0.9mph /  1.4km/h 6mph /  9.7km/h 82% 0in /  0.0mm 47 W/m2
10:14 54.5 °F /  12.5 °C 48.7 °F /  9.3 °C 30.2in /  1021.3hPa ESE 0.9mph /  1.4km/h 4mph /  6.4km/h 81% 0in /  0.0mm 44 W/m2
10:19 54.7 °F /  12.6 °C 48.6 °F /  9.2 °C 30.2in /  1021.3hPa East 2mph /  3.2km/h 5mph /  8km/h 80% 0in /  0.0mm 51 W/m2
10:24 54.9 °F /  12.7 °C 48.7 °F /  9.3 °C 30.2in /  1021.3hPa ESE 4.9mph /  7.9km/h 10mph /  16.1km/h 80% 0in /  0.0mm 49 W/m2
10:29 54.9 °F /  12.7 °C 48.7 °F /  9.3 °C 30.2in /  1021.3hPa East 4mph /  6.4km/h 6mph /  9.7km/h 80% 0in /  0.0mm 44 W/m2
10:34 55 °F /  12.8 °C 48.6 °F /  9.2 °C 30.2in /  1021.3hPa ENE 2.9mph /  4.7km/h 10mph /  16.1km/h 79% 0in /  0.0mm 40 W/m2
10:39 55.2 °F /  12.9 °C 48.6 °F /  9.2 °C 30.2in /  1021.3hPa NNE 2mph /  3.2km/h 11mph /  17.7km/h 78% 0in /  0.0mm 39 W/m2
10:44 55.6 °F /  13.1 °C 49.1 °F /  9.5 °C 30.2in /  1021.3hPa East 6mph /  9.7km/h 8mph /  12.9km/h 79% 0in /  0.0mm 44 W/m2
10:49 55.6 °F /  13.1 °C 48.9 °F /  9.4 °C 30.2in /  1021.0hPa NNE 2.9mph /  4.7km/h 9mph /  14.5km/h 78% 0in /  0.0mm 39 W/m2
10:54 55.8 °F /  13.2 °C 48.9 °F /  9.4 °C 30.2in /  1021.0hPa ENE 2.9mph /  4.7km/h 9mph /  14.5km/h 78% 0in /  0.0mm 47 W/m2
10:59 55.9 °F /  13.3 °C 49.1 °F /  9.5 °C 30.2in /  1021.0hPa NE 2mph /  3.2km/h 4mph /  6.4km/h 78% 0in /  0.0mm 39 W/m2
11:04 55.9 °F /  13.3 °C 48.9 °F /  9.4 °C 30.2in /  1021.3hPa East 2mph /  3.2km/h 9mph /  14.5km/h 77% 0in /  0.0mm 42 W/m2
11:09 55.9 °F /  13.3 °C 49.1 °F /  9.5 °C 30.2in /  1021.3hPa ESE 2.9mph /  4.7km/h 4mph /  6.4km/h 78% 0in /  0.0mm 49 W/m2
11:14 56.1 °F /  13.4 °C 49.3 °F /  9.6 °C 30.2in /  1021.0hPa ENE 2mph /  3.2km/h 9mph /  14.5km/h 78% 0in /  0.0mm 121 W/m2
11:19 56.1 °F /  13.4 °C 49.3 °F /  9.6 °C 30.2in /  1021.0hPa ENE 4mph /  6.4km/h 5mph /  8km/h 78% 0in /  0.0mm 49 W/m2
11:24 56.3 °F /  13.5 °C 49.1 °F /  9.5 °C 30.1in /  1020.7hPa SE 4mph /  6.4km/h 9mph /  14.5km/h 77% 0in /  0.0mm 42 W/m2
11:29 56.5 °F /  13.6 °C 49.3 °F /  9.6 °C 30.1in /  1020.7hPa ESE 4mph /  6.4km/h 11mph /  17.7km/h 77% 0in /  0.0mm 47 W/m2
11:34 56.5 °F /  13.6 °C 49.3 °F /  9.6 °C 30.1in /  1020.7hPa East 6.9mph /  11.1km/h 8mph /  12.9km/h 77% 0in /  0.0mm 51 W/m2
11:39 56.7 °F /  13.7 °C 49.5 °F /  9.7 °C 30.1in /  1020.7hPa East 2.9mph /  4.7km/h 7mph /  11.3km/h 77% 0in /  0.0mm 58 W/m2
11:44 56.7 °F /  13.7 °C 49.5 °F /  9.7 °C 30.1in /  1020.3hPa SE 0.9mph /  1.4km/h 6mph /  9.7km/h 77% 0in /  0.0mm 44 W/m2
11:49 56.8 °F /  13.8 °C 49.6 °F /  9.8 °C 30.1in /  1020.0hPa ENE 4mph /  6.4km/h 5mph /  8km/h 77% 0in /  0.0mm 213 W/m2
11:54 57 °F /  13.9 °C 49.5 °F /  9.7 °C 30.1in /  1020.3hPa NE 0.9mph /  1.4km/h 10mph /  16.1km/h 76% 0in /  0.0mm 281 W/m2
11:59 57.4 °F /  14.1 °C 49.8 °F /  9.9 °C 30.1in /  1020.0hPa ENE 2.9mph /  4.7km/h 4mph /  6.4km/h 76% 0in /  0.0mm 167 W/m2
12:04 57.6 °F /  14.2 °C 50 °F /  10 °C 30.1in /  1020.3hPa Calm   10mph /  16.1km/h 76% 0in /  0.0mm 76 W/m2
12:09 57.6 °F /  14.2 °C 50 °F /  10 °C 30.1in /  1020.0hPa ENE 2mph /  3.2km/h 6mph /  9.7km/h 76% 0in /  0.0mm 67 W/m2
12:14 57.7 °F /  14.3 °C 50.2 °F /  10.1 °C 30.1in /  1020.0hPa ENE 2mph /  3.2km/h 7mph /  11.3km/h 76% 0in /  0.0mm 53 W/m2
12:19 57.9 °F /  14.4 °C 50 °F /  10 °C 30.1in /  1020.0hPa ENE 2mph /  3.2km/h 9mph /  14.5km/h 75% 0in /  0.0mm 111 W/m2
12:24 58.3 °F /  14.6 °C 50.4 °F /  10.2 °C 30.1in /  1020.0hPa ESE 0.9mph /  1.4km/h 7mph /  11.3km/h 75% 0in /  0.0mm 54 W/m2
12:29 58.5 °F /  14.7 °C 50.5 °F /  10.3 °C 30.1in /  1020.0hPa East 4.9mph /  7.9km/h 11mph /  17.7km/h 75% 0in /  0.0mm 42 W/m2
12:34 58.6 °F /  14.8 °C 50.7 °F /  10.4 °C 30.1in /  1020.0hPa ESE 2.9mph /  4.7km/h 7mph /  11.3km/h 75% 0in /  0.0mm 42 W/m2
12:39 58.5 °F /  14.7 °C 50.2 °F /  10.1 °C 30.1in /  1019.6hPa NE 0.9mph /  1.4km/h 11mph /  17.7km/h 74% 0in /  0.0mm 77 W/m2
12:44 58.8 °F /  14.9 °C 50.5 °F /  10.3 °C 30.1in /  1019.6hPa SE 4mph /  6.4km/h 7mph /  11.3km/h 74% 0in /  0.0mm 46 W/m2
12:49 59 °F /  15 °C 50.7 °F /  10.4 °C 30.1in /  1019.6hPa East 0.9mph /  1.4km/h 9mph /  14.5km/h 74% 0in /  0.0mm 69 W/m2
12:54 59.2 °F /  15.1 °C 50.9 °F /  10.5 °C 30.1in /  1019.3hPa SE 2.9mph /  4.7km/h 10mph /  16.1km/h 74% 0in /  0.0mm 47 W/m2
12:59 59.4 °F /  15.2 °C 51.1 °F /  10.6 °C 30.1in /  1019.3hPa East 2mph /  3.2km/h 3mph /  4.8km/h 74% 0in /  0.0mm 58 W/m2
13:04 59.4 °F /  15.2 °C 51.1 °F /  10.6 °C 30.1in /  1019.3hPa ESE 2mph /  3.2km/h 3mph /  4.8km/h 74% 0in /  0.0mm 53 W/m2
13:09 59.4 °F /  15.2 °C 50.7 °F /  10.4 °C 30.1in /  1019.3hPa East 0.9mph /  1.4km/h 3mph /  4.8km/h 73% 0in /  0.0mm 40 W/m2
13:14 59.5 °F /  15.3 °C 50.9 °F /  10.5 °C 30.1in /  1019.3hPa ESE 2mph /  3.2km/h 4mph /  6.4km/h 73% 0in /  0.0mm 37 W/m2
13:19 59.5 °F /  15.3 °C 51.3 °F /  10.7 °C 30.1in /  1019.3hPa SE 2mph /  3.2km/h 5mph /  8km/h 74% 0in /  0.0mm 47 W/m2
13:24 59.5 °F /  15.3 °C 51.3 °F /  10.7 °C 30.1in /  1019.0hPa East 6mph /  9.7km/h 10mph /  16.1km/h 74% 0in /  0.0mm 95 W/m2
13:29 59.5 °F /  15.3 °C 51.3 °F /  10.7 °C 30.1in /  1019.0hPa NE 6mph /  9.7km/h 8mph /  12.9km/h 74% 0in /  0.0mm 90 W/m2
13:34 59.7 °F /  15.4 °C 51.4 °F /  10.8 °C 30.1in /  1019.0hPa SE 2mph /  3.2km/h 10mph /  16.1km/h 74% 0in /  0.0mm 63 W/m2
13:39 59.7 °F /  15.4 °C 51.4 °F /  10.8 °C 30.1in /  1019.0hPa East 4mph /  6.4km/h 5mph /  8km/h 74% 0in /  0.0mm 74 W/m2
13:44 60.1 °F /  15.6 °C 51.8 °F /  11 °C 30.1in /  1019.0hPa Calm   2mph /  3.2km/h 74% 0in /  0.0mm 102 W/m2
13:49 60.3 °F /  15.7 °C 52 °F /  11.1 °C 30.1in /  1019.0hPa Calm   2mph /  3.2km/h 74% 0in /  0.0mm 156 W/m2
13:54 60.1 °F /  15.6 °C 51.8 °F /  11 °C 30.1in /  1018.6hPa SE 2mph /  3.2km/h 5mph /  8km/h 74% 0in /  0.0mm 40 W/m2
13:59 60.1 °F /  15.6 °C 51.8 °F /  11 °C 30.1in /  1018.3hPa ESE 0.9mph /  1.4km/h 3mph /  4.8km/h 74% 0in /  0.0mm 46 W/m2
14:04 60.1 °F /  15.6 °C 51.8 °F /  11 °C 30.1in /  1018.3hPa ENE 2.9mph /  4.7km/h 4mph /  6.4km/h 74% 0in /  0.0mm 42 W/m2
14:09 60.3 °F /  15.7 °C 52 °F /  11.1 °C 30.1in /  1018.3hPa Calm   3mph /  4.8km/h 74% 0in /  0.0mm 42 W/m2
14:14 60.1 °F /  15.6 °C 52.5 °F /  11.4 °C 30.1in /  1018.3hPa Calm   2mph /  3.2km/h 76% 0in /  0.0mm 46 W/m2
14:19 59.9 °F /  15.5 °C 52 °F /  11.1 °C 30.1in /  1018.3hPa Calm   4mph /  6.4km/h 75% 0in /  0.0mm 58 W/m2
14:24 60.3 °F /  15.7 °C 52.3 °F /  11.3 °C 30.1in /  1018.0hPa ENE 0.9mph /  1.4km/h 2mph /  3.2km/h 75% 0in /  0.0mm 69 W/m2
14:29 60.4 °F /  15.8 °C 52.2 °F /  11.2 °C 30.1in /  1018.3hPa NE 2mph /  3.2km/h 4mph /  6.4km/h 74% 0in /  0.0mm 72 W/m2
14:34 60.6 °F /  15.9 °C 52 °F /  11.1 °C 30.1in /  1018.3hPa NNE 0.9mph /  1.4km/h 2mph /  3.2km/h 73% 0in /  0.0mm 69 W/m2
14:39 61.2 °F /  16.2 °C 50.9 °F /  10.5 °C 30.1in /  1018.0hPa North 0.9mph /  1.4km/h 2mph /  3.2km/h 69% 0in /  0.0mm 67 W/m2
14:44 61.3 °F /  16.3 °C 51.1 °F /  10.6 °C 30.1in /  1018.0hPa Calm   3mph /  4.8km/h 69% 0in /  0.0mm 54 W/m2
14:49 61.5 °F /  16.4 °C 51.3 °F /  10.7 °C 30.1in /  1018.0hPa West 2.9mph /  4.7km/h 4mph /  6.4km/h 69% 0in /  0.0mm 54 W/m2
14:54 61.5 °F /  16.4 °C 51.6 °F /  10.9 °C 30.1in /  1018.0hPa NNW 2mph /  3.2km/h 3mph /  4.8km/h 70% 0in /  0.0mm 58 W/m2
14:59 61.3 °F /  16.3 °C 51.4 °F /  10.8 °C 30.1in /  1018.0hPa NE 0.9mph /  1.4km/h 4mph /  6.4km/h 70% 0in /  0.0mm 65 W/m2
15:04 61.5 °F /  16.4 °C 51.3 °F /  10.7 °C 30.1in /  1018.0hPa ENE 2mph /  3.2km/h 3mph /  4.8km/h 69% 0in /  0.0mm 72 W/m2
15:09 61.5 °F /  16.4 °C 50.9 °F /  10.5 °C 30.1in /  1018.0hPa Calm   2mph /  3.2km/h 68% 0in /  0.0mm 81 W/m2
15:14 61.7 °F /  16.5 °C 51.4 °F /  10.8 °C 30.1in /  1018.0hPa NW 0.9mph /  1.4km/h 3mph /  4.8km/h 69% 0in /  0.0mm 93 W/m2
15:20 61.9 °F /  16.6 °C 51.6 °F /  10.9 °C 30.1in /  1018.0hPa NNW 0.9mph /  1.4km/h 2mph /  3.2km/h 69% 0in /  0.0mm 98 W/m2
15:25 61.9 °F /  16.6 °C 50.7 °F /  10.4 °C 30.1in /  1018.0hPa Calm   3mph /  4.8km/h 67% 0in /  0.0mm 105 W/m2
15:30 62.1 °F /  16.7 °C 51.4 °F /  10.8 °C 30.1in /  1018.0hPa Calm   2mph /  3.2km/h 68% 0in /  0.0mm 98 W/m2
15:35 62.1 °F /  16.7 °C 51.4 °F /  10.8 °C 30.1in /  1018.0hPa Calm   4mph /  6.4km/h 68% 0in /  0.0mm 91 W/m2
15:40 62.2 °F /  16.8 °C 51.6 °F /  10.9 °C 30.1in /  1018.0hPa Calm   2mph /  3.2km/h 68% 0in /  0.0mm 79 W/m2
15:45 62.4 °F /  16.9 °C 52.2 °F /  11.2 °C 30.1in /  1018.0hPa Calm   4mph /  6.4km/h 69% 0in /  0.0mm 70 W/m2
15:50 62.2 °F /  16.8 °C 52.3 °F /  11.3 °C 30.1in /  1018.0hPa West 0.9mph /  1.4km/h 2mph /  3.2km/h 70% 0in /  0.0mm 65 W/m2
15:55 62.2 °F /  16.8 °C 52.3 °F /  11.3 °C 30.1in /  1018.0hPa WNW 0.9mph /  1.4km/h 4mph /  6.4km/h 70% 0in /  0.0mm 63 W/m2
16:00 61.9 °F /  16.6 °C 52.7 °F /  11.5 °C 30.1in /  1018.0hPa Calm   2mph /  3.2km/h 72% 0in /  0.0mm 62 W/m2
16:05 61.2 °F /  16.2 °C 52 °F /  11.1 °C 30.1in /  1017.6hPa NE 0.9mph /  1.4km/h 4mph /  6.4km/h 72% 0in /  0.0mm 56 W/m2
16:10 61 °F /  16.1 °C 53.1 °F /  11.7 °C 30.1in /  1017.6hPa Calm   1mph /  1.6km/h 75% 0in /  0.0mm 49 W/m2
16:15 60.3 °F /  15.7 °C 52.7 °F /  11.5 °C 30.1in /  1018.0hPa Calm   3mph /  4.8km/h 76% 0in /  0.0mm 42 W/m2
16:20 59.7 °F /  15.4 °C 52.9 °F /  11.6 °C 30.1in /  1018.0hPa Calm     78% 0in /  0.0mm 35 W/m2
16:25 59.2 °F /  15.1 °C 52.7 °F /  11.5 °C 30.1in /  1018.0hPa Calm   1mph /  1.6km/h 79% 0in /  0.0mm 28 W/m2
16:30 58.6 °F /  14.8 °C 51.8 °F /  11 °C 30.1in /  1018.0hPa East 0.9mph /  1.4km/h 2mph /  3.2km/h 78% 0in /  0.0mm 26 W/m2
16:35 58.6 °F /  14.8 °C 52.5 °F /  11.4 °C 30.1in /  1018.0hPa Calm   2mph /  3.2km/h 80% 0in /  0.0mm 23 W/m2
16:40 58.3 °F /  14.6 °C 52.2 °F /  11.2 °C 30.1in /  1017.6hPa East 0.9mph /  1.4km/h 3mph /  4.8km/h 80% 0in /  0.0mm 19 W/m2
16:45 57.9 °F /  14.4 °C 52.2 °F /  11.2 °C 30.1in /  1017.6hPa Calm   1mph /  1.6km/h 81% 0in /  0.0mm 18 W/m2
16:50 57.6 °F /  14.2 °C 52.2 °F /  11.2 °C 30.1in /  1017.6hPa Calm   2mph /  3.2km/h 82% 0in /  0.0mm 16 W/m2
16:55 57 °F /  13.9 °C 52 °F /  11.1 °C 30.1in /  1017.6hPa Calm   2mph /  3.2km/h 83% 0in /  0.0mm 14 W/m2
17:00 56.7 °F /  13.7 °C 51.8 °F /  11 °C 30in /  1017.3hPa Calm   1mph /  1.6km/h 84% 0in /  0.0mm 12 W/m2
17:05 56.3 °F /  13.5 °C 51.4 °F /  10.8 °C 30in /  1017.3hPa Calm     84% 0in /  0.0mm 11 W/m2
17:10 56.1 °F /  13.4 °C 51.6 °F /  10.9 °C 30in /  1017.3hPa Calm     85% 0in /  0.0mm 7 W/m2
17:15 55.8 °F /  13.2 °C 51.3 °F /  10.7 °C 30in /  1017.3hPa Calm     85% 0in /  0.0mm 0 W/m2
17:20 55.6 °F /  13.1 °C 51.1 °F /  10.6 °C 30in /  1017.3hPa Calm   2mph /  3.2km/h 85% 0in /  0.0mm 0 W/m2
17:25 55 °F /  12.8 °C 50.9 °F /  10.5 °C 30in /  1017.3hPa East 0.9mph /  1.4km/h 1mph /  1.6km/h 86% 0in /  0.0mm 0 W/m2
17:30 54.7 °F /  12.6 °C 50.5 °F /  10.3 °C 30in /  1017.3hPa Calm   2mph /  3.2km/h 86% 0in /  0.0mm 0 W/m2
17:35 54.3 °F /  12.4 °C 50.5 °F /  10.3 °C 30in /  1017.3hPa East 0.9mph /  1.4km/h 1mph /  1.6km/h 87% 0in /  0.0mm 0 W/m2
17:40 54 °F /  12.2 °C 50.2 °F /  10.1 °C 30in /  1017.3hPa Calm     87% 0in /  0.0mm 0 W/m2
17:45 53.6 °F /  12 °C 50.2 °F /  10.1 °C 30in /  1017.3hPa Calm   1mph /  1.6km/h 88% 0in /  0.0mm 0 W/m2
17:50 53.4 °F /  11.9 °C 50.2 °F /  10.1 °C 30.1in /  1017.6hPa Calm   2mph /  3.2km/h 89% 0in /  0.0mm 0 W/m2
17:55 53.2 °F /  11.8 °C 50 °F /  10 °C 30.1in /  1017.6hPa Calm     89% 0in /  0.0mm 0 W/m2
18:00 53.1 °F /  11.7 °C 50.2 °F /  10.1 °C 30in /  1017.3hPa Calm     90% 0in /  0.0mm 0 W/m2
18:05 52.9 °F /  11.6 °C 50 °F /  10 °C 30in /  1017.3hPa Calm     90% 0in /  0.0mm 0 W/m2
18:10 52.9 °F /  11.6 °C 50 °F /  10 °C 30.1in /  1017.6hPa Calm     90% 0in /  0.0mm 0 W/m2
18:15 52.7 °F /  11.5 °C 50.2 °F /  10.1 °C 30.1in /  1017.6hPa Calm     91% 0in /  0.0mm 0 W/m2
18:20 52.7 °F /  11.5 °C 50.2 °F /  10.1 °C 30.1in /  1017.6hPa Calm     91% 0in /  0.0mm 0 W/m2
18:25 52.7 °F /  11.5 °C 50.2 °F /  10.1 °C 30.1in /  1017.6hPa Calm     91% 0in /  0.0mm 0 W/m2
18:30 52.5 °F /  11.4 °C 50 °F /  10 °C 30in /  1017.3hPa Calm     91% 0in /  0.0mm 0 W/m2
18:36 52.5 °F /  11.4 °C 50 °F /  10 °C 30in /  1016.9hPa Calm     91% 0in /  0.0mm 0 W/m2
18:41 52.5 °F /  11.4 °C 50 °F /  10 °C 30in /  1017.3hPa Calm     91% 0in /  0.0mm 0 W/m2
18:46 52.5 °F /  11.4 °C 50 °F /  10 °C 30in /  1017.3hPa Calm     91% 0in /  0.0mm 0 W/m2
18:51 52.3 °F /  11.3 °C 49.8 °F /  9.9 °C 30in /  1016.9hPa Calm     91% 0in /  0.0mm 0 W/m2
18:56 52.3 °F /  11.3 °C 49.8 °F /  9.9 °C 30in /  1017.3hPa Calm     91% 0in /  0.0mm 0 W/m2
19:01 52.2 °F /  11.2 °C 49.6 °F /  9.8 °C 30in /  1016.9hPa Calm     91% 0in /  0.0mm 0 W/m2
19:06 52.2 °F /  11.2 °C 49.8 °F /  9.9 °C 30in /  1016.9hPa Calm     92% 0in /  0.0mm 0 W/m2
19:11 52.2 °F /  11.2 °C 49.8 °F /  9.9 °C 30in /  1017.3hPa Calm   1mph /  1.6km/h 92% 0in /  0.0mm 0 W/m2
19:16 52.2 °F /  11.2 °C 49.8 °F /  9.9 °C 30in /  1017.3hPa Calm     92% 0in /  0.0mm 0 W/m2
19:21 52.2 °F /  11.2 °C 49.8 °F /  9.9 °C 30in /  1017.3hPa Calm   1mph /  1.6km/h 92% 0in /  0.0mm 0 W/m2
19:26 52.2 °F /  11.2 °C 49.8 °F /  9.9 °C 30in /  1016.9hPa Calm     92% 0in /  0.0mm 0 W/m2
19:31 52.3 °F /  11.3 °C 50 °F /  10 °C 30in /  1016.9hPa Calm     92% 0in /  0.0mm 0 W/m2
19:36 52.3 °F /  11.3 °C 50.4 °F /  10.2 °C 30in /  1016.9hPa Calm     93% 0in /  0.0mm 0 W/m2
19:41 52.3 °F /  11.3 °C 50.4 °F /  10.2 °C 30in /  1016.9hPa Calm     93% 0in /  0.0mm 0 W/m2
19:46 52.5 °F /  11.4 °C 50.5 °F /  10.3 °C 30in /  1016.9hPa Calm     93% 0in /  0.0mm 0 W/m2
19:51 52.5 °F /  11.4 °C 50.5 °F /  10.3 °C 30in /  1016.9hPa Calm     93% 0in /  0.0mm 0 W/m2
19:56 52.9 °F /  11.6 °C 50.9 °F /  10.5 °C 30in /  1016.9hPa East 0.9mph /  1.4km/h 2mph /  3.2km/h 93% 0in /  0.0mm 0 W/m2
20:01 52.9 °F /  11.6 °C 50.9 °F /  10.5 °C 30in /  1016.9hPa Calm     93% 0in /  0.0mm 0 W/m2
20:06 53.1 °F /  11.7 °C 51.1 °F /  10.6 °C 30in /  1016.9hPa Calm     93% 0in /  0.0mm 0 W/m2
20:11 53.2 °F /  11.8 °C 51.3 °F /  10.7 °C 30in /  1016.9hPa Calm     93% 0in /  0.0mm 0 W/m2
20:16 53.4 °F /  11.9 °C 51.1 °F /  10.6 °C 30in /  1016.9hPa East 0.9mph /  1.4km/h 3mph /  4.8km/h 92% 0in /  0.0mm 0 W/m2
20:21 53.8 °F /  12.1 °C 51.4 °F /  10.8 °C 30in /  1016.9hPa SSE 0.9mph /  1.4km/h 2mph /  3.2km/h 92% 0in /  0.0mm 0 W/m2
20:26 54 °F /  12.2 °C 51.6 °F /  10.9 °C 30in /  1016.9hPa SSE 0.9mph /  1.4km/h 3mph /  4.8km/h 92% 0in /  0.0mm 0 W/m2
20:31 54.1 °F /  12.3 °C 51.8 °F /  11 °C 30in /  1016.9hPa ENE 0.9mph /  1.4km/h 4mph /  6.4km/h 92% 0in /  0.0mm 0 W/m2
20:36 54.3 °F /  12.4 °C 51.8 °F /  11 °C 30in /  1016.9hPa Calm   1mph /  1.6km/h 91% 0in /  0.0mm 0 W/m2
20:41 54.7 °F /  12.6 °C 52.2 °F /  11.2 °C 30in /  1016.6hPa Calm   4mph /  6.4km/h 91% 0in /  0.0mm 0 W/m2
20:46 54.9 °F /  12.7 °C 52 °F /  11.1 °C 30in /  1016.6hPa ENE 2mph /  3.2km/h 3mph /  4.8km/h 90% 0in /  0.0mm 0 W/m2
20:51 55.2 °F /  12.9 °C 52 °F /  11.1 °C 30in /  1016.6hPa ENE 2mph /  3.2km/h 4mph /  6.4km/h 89% 0in /  0.0mm 0 W/m2
20:56 55.8 °F /  13.2 °C 52.3 °F /  11.3 °C 30in /  1016.6hPa NE 4mph /  6.4km/h 4mph /  6.4km/h 88% 0in /  0.0mm 0 W/m2
21:01 56.3 °F /  13.5 °C 52.5 °F /  11.4 °C 30in /  1016.9hPa ESE 2mph /  3.2km/h 2mph /  3.2km/h 87% 0in /  0.0mm 0 W/m2
21:06 56.5 °F /  13.6 °C 52.7 °F /  11.5 °C 30in /  1016.6hPa Calm   2mph /  3.2km/h 87% 0in /  0.0mm 0 W/m2
21:11 56.5 °F /  13.6 °C 52.3 °F /  11.3 °C 30in /  1016.9hPa NE 0.9mph /  1.4km/h 1mph /  1.6km/h 86% 0in /  0.0mm 0 W/m2
21:16 56.3 °F /  13.5 °C 52.5 °F /  11.4 °C 30in /  1016.6hPa East 0.9mph /  1.4km/h 4mph /  6.4km/h 87% 0in /  0.0mm 0 W/m2
21:21 56.1 °F /  13.4 °C 52.7 °F /  11.5 °C 30in /  1016.6hPa East 0.9mph /  1.4km/h 1mph /  1.6km/h 88% 0in /  0.0mm 0 W/m2
21:26 55.9 °F /  13.3 °C 52.5 °F /  11.4 °C 30in /  1016.6hPa ENE 2mph /  3.2km/h 2mph /  3.2km/h 88% 0in /  0.0mm 0 W/m2
21:31 55.8 °F /  13.2 °C 52.5 °F /  11.4 °C 30in /  1016.6hPa ENE 2mph /  3.2km/h 3mph /  4.8km/h 89% 0in /  0.0mm 0 W/m2
21:36 55.8 °F /  13.2 °C 52.3 °F /  11.3 °C 30in /  1016.6hPa West 0.9mph /  1.4km/h 2mph /  3.2km/h 88% 0in /  0.0mm 0 W/m2
21:41 55.9 °F /  13.3 °C 52.7 °F /  11.5 °C 30in /  1016.9hPa SSE 0.9mph /  1.4km/h 4mph /  6.4km/h 89% 0in /  0.0mm 0 W/m2
21:46 56.1 °F /  13.4 °C 52.7 °F /  11.5 °C 30in /  1016.6hPa Calm   6mph /  9.7km/h 88% 0in /  0.0mm 0 W/m2
21:51 56.5 °F /  13.6 °C 52.7 °F /  11.5 °C 30in /  1016.6hPa NE 0.9mph /  1.4km/h 4mph /  6.4km/h 87% 0in /  0.0mm 0 W/m2
21:56 57 °F /  13.9 °C 52.9 °F /  11.6 °C 30in /  1016.6hPa North 2mph /  3.2km/h 6mph /  9.7km/h 86% 0in /  0.0mm 0 W/m2
22:01 57.6 °F /  14.2 °C 52.7 °F /  11.5 °C 30in /  1016.6hPa West 0.9mph /  1.4km/h 2mph /  3.2km/h 84% 0in /  0.0mm 0 W/m2
22:06 57.7 °F /  14.3 °C 52.7 °F /  11.5 °C 30in /  1016.6hPa Calm   5mph /  8km/h 83% 0in /  0.0mm 0 W/m2
22:11 57.9 °F /  14.4 °C 52.7 °F /  11.5 °C 30in /  1016.6hPa Calm   2mph /  3.2km/h 83% 0in /  0.0mm 0 W/m2
22:16 58.1 °F /  14.5 °C 52.9 °F /  11.6 °C 30in /  1016.6hPa Calm     83% 0in /  0.0mm 0 W/m2
22:21 57.9 °F /  14.4 °C 53.1 °F /  11.7 °C 30in /  1016.6hPa Calm     84% 0in /  0.0mm 0 W/m2
22:26 57.7 °F /  14.3 °C 52.9 °F /  11.6 °C 30in /  1016.6hPa Calm   1mph /  1.6km/h 84% 0in /  0.0mm 0 W/m2
22:31 57.7 °F /  14.3 °C 52.9 °F /  11.6 °C 30in /  1016.6hPa West 2mph /  3.2km/h 3mph /  4.8km/h 84% 0in /  0.0mm 0 W/m2
22:36 57.9 °F /  14.4 °C 52.5 °F /  11.4 °C 30in /  1016.9hPa NW 2mph /  3.2km/h 4mph /  6.4km/h 82% 0in /  0.0mm 0 W/m2
22:41 58.8 °F /  14.9 °C 52.7 °F /  11.5 °C 30in /  1016.9hPa West 2.9mph /  4.7km/h 12mph /  19.3km/h 80% 0in /  0.0mm 0 W/m2
22:46 59.7 °F /  15.4 °C 52.9 °F /  11.6 °C 30in /  1016.9hPa NNW 4.9mph /  7.9km/h 9mph /  14.5km/h 78% 0in /  0.0mm 0 W/m2
22:51 60.3 °F /  15.7 °C 52.7 °F /  11.5 °C 30in /  1016.9hPa SW 8.1mph /  13km/h 11mph /  17.7km/h 76% 0in /  0.0mm 0 W/m2
22:56 60.6 °F /  15.9 °C 53.1 °F /  11.7 °C 30in /  1016.9hPa Calm   3mph /  4.8km/h 76% 0in /  0.0mm 0 W/m2
23:01 60.6 °F /  15.9 °C 53.1 °F /  11.7 °C 30in /  1016.9hPa WNW 2.9mph /  4.7km/h 11mph /  17.7km/h 76% 0in /  0.0mm 0 W/m2
23:06 60.4 °F /  15.8 °C 53.2 °F /  11.8 °C 30in /  1016.9hPa WSW 10.1mph /  16.3km/h 13mph /  20.9km/h 77% 0in /  0.0mm 0 W/m2
23:11 60.4 °F /  15.8 °C 53.6 °F /  12 °C 30in /  1016.9hPa NE 2mph /  3.2km/h 7mph /  11.3km/h 78% 0in /  0.0mm 0 W/m2
23:16 60.4 °F /  15.8 °C 53.6 °F /  12 °C 30in /  1016.9hPa WNW 2mph /  3.2km/h 7mph /  11.3km/h 78% 0in /  0.0mm 0 W/m2
23:21 60.3 °F /  15.7 °C 53.8 °F /  12.1 °C 30in /  1016.9hPa WNW 2mph /  3.2km/h 4mph /  6.4km/h 79% 0in /  0.0mm 0 W/m2
23:27 60.3 °F /  15.7 °C 53.8 °F /  12.1 °C 30in /  1016.9hPa NW 0.9mph /  1.4km/h 3mph /  4.8km/h 79% 0in /  0.0mm 0 W/m2
23:32 60.3 °F /  15.7 °C 53.8 °F /  12.1 °C 30in /  1016.9hPa NW 2.9mph /  4.7km/h 4mph /  6.4km/h 79% 0in /  0.0mm 0 W/m2
23:37 60.3 °F /  15.7 °C 53.8 °F /  12.1 °C 30in /  1016.9hPa South 0.9mph /  1.4km/h 9mph /  14.5km/h 79% 0in /  0.0mm 0 W/m2
23:42 60.4 °F /  15.8 °C 54 °F /  12.2 °C 30in /  1016.6hPa Calm   4mph /  6.4km/h 79% 0in /  0.0mm 0 W/m2
23:47 60.3 °F /  15.7 °C 53.8 °F /  12.1 °C 30in /  1016.9hPa NE 2mph /  3.2km/h 9mph /  14.5km/h 79% 0in /  0.0mm 0 W/m2
23:52 60.3 °F /  15.7 °C 53.8 °F /  12.1 °C 30in /  1016.6hPa NNW 0.9mph /  1.4km/h 3mph /  4.8km/h 79% 0in /  0.0mm 0 W/m2
23:57 60.1 °F /  15.6 °C 54 °F /  12.2 °C 30in /  1016.6hPa Calm   5mph /  8km/h 80% 0in /  0.0mm 0 W/m2
Juneau County Weather
Compliments of Weather Underground - 4 mb